Time;durP1;ratioP1;P1;durP2;ratioP2;P2;SDS_P1;SDS_P2;PMS_P1;PMS_P2;Temp;Humidity;BMP_temperature;BMP_pressure;BME280_temperature;BME280_humidity;BME280_pressure;Samples;Min_cycle;Max_cycle;Signal;HPM_P1;HPM_P2
2023/10/06 00:03:05;;;;;;;22.73;15.15;;;;;;;11.87;100.00;102399.78;5066711;28;20041;-62
2023/10/06 00:05:32;;;;;;;23.98;15.65;;;;;;;11.86;100.00;102398.13;5063386;28;20090;-62
2023/10/06 00:07:58;;;;;;;21.60;15.18;;;;;;;11.84;100.00;102392.03;5062487;28;20033;-62
2023/10/06 00:10:27;;;;;;;23.95;15.48;;;;;;;11.81;100.00;102398.09;5056316;28;20023;-62
2023/10/06 00:12:59;;;;;;;21.08;15.23;;;;;;;11.78;100.00;102396.72;5042578;28;20025;-63
2023/10/06 00:15:38;;;;;;;23.45;15.55;;;;;;;11.77;100.00;102400.59;5054696;28;20033;-62
2023/10/06 00:18:08;;;;;;;22.15;15.73;;;;;;;11.75;100.00;102402.00;5055270;28;20040;-62
2023/10/06 00:20:45;;;;;;;23.23;15.95;;;;;;;11.71;100.00;102404.50;5072260;28;20519;-62
2023/10/06 00:23:14;;;;;;;23.58;16.40;;;;;;;11.69;100.00;102396.47;5061886;28;20723;-62
2023/10/06 00:25:43;;;;;;;21.85;16.17;;;;;;;11.66;100.00;102391.47;5041700;28;20111;-62
2023/10/06 00:28:17;;;;;;;23.13;15.98;;;;;;;11.68;100.00;102399.50;5071917;28;20113;-62
2023/10/06 00:30:46;;;;;;;22.85;15.80;;;;;;;11.64;100.00;102398.38;5045596;28;20392;-62
2023/10/06 00:33:12;;;;;;;21.77;15.77;;;;;;;11.64;100.00;102399.22;5062964;28;20016;-62
2023/10/06 00:35:37;;;;;;;23.98;15.55;;;;;;;11.63;100.00;102402.28;5060321;28;20032;-62
2023/10/06 00:38:18;;;;;;;23.98;16.40;;;;;;;11.63;100.00;102405.84;5068165;28;20036;-62
2023/10/06 00:40:50;;;;;;;22.35;15.73;;;;;;;11.64;100.00;102404.75;5072485;28;20029;-62
2023/10/06 00:43:21;;;;;;;22.08;15.90;;;;;;;11.59;100.00;102392.81;5072779;28;20036;-63
2023/10/06 00:45:47;;;;;;;21.40;15.63;;;;;;;11.58;100.00;102397.56;5067802;28;20029;-63
2023/10/06 00:48:15;;;;;;;24.10;15.82;;;;;;;11.57;100.00;102404.19;5052874;28;20558;-63
2023/10/06 00:50:42;;;;;;;23.20;15.90;;;;;;;11.57;100.00;102401.44;5067153;28;20126;-63
2023/10/06 00:53:10;;;;;;;25.25;15.90;;;;;;;11.54;100.00;102393.66;5073310;28;20051;-63
2023/10/06 00:55:38;;;;;;;22.35;16.60;;;;;;;11.56;100.00;102396.97;5069653;28;20035;-63
2023/10/06 00:58:10;;;;;;;23.30;15.57;;;;;;;11.56;100.00;102396.97;5066844;28;20030;-63
2023/10/06 01:00:37;;;;;;;22.25;15.82;;;;;;;11.56;100.00;102383.13;5070562;28;20035;-63
2023/10/06 01:03:14;;;;;;;23.92;15.90;;;;;;;11.55;100.00;102378.69;5053826;28;20037;-63
2023/10/06 01:05:46;;;;;;;24.85;16.50;;;;;;;11.54;100.00;102388.09;5063404;28;20047;-63
2023/10/06 01:08:12;;;;;;;22.40;15.55;;;;;;;11.52;100.00;102387.56;5063670;28;20065;-63
2023/10/06 01:10:39;;;;;;;22.13;15.07;;;;;;;11.50;100.00;102381.47;5052730;28;20048;-63
2023/10/06 01:13:12;;;;;;;21.80;15.68;;;;;;;11.48;100.00;102386.44;5069054;28;20411;-63
2023/10/06 01:15:48;;;;;;;22.88;15.80;;;;;;;11.45;100.00;102373.97;5071893;28;20388;-63
2023/10/06 01:18:23;;;;;;;24.08;15.43;;;;;;;11.45;100.00;102379.53;5065865;28;20033;-63
2023/10/06 01:20:49;;;;;;;23.35;16.23;;;;;;;11.45;100.00;102378.66;5070324;28;20040;-63
2023/10/06 01:23:21;;;;;;;25.38;16.20;;;;;;;11.42;100.00;102368.16;5061234;28;20025;-63
2023/10/06 01:25:53;;;;;;;25.67;16.60;;;;;;;11.44;100.00;102369.53;5055384;28;20376;-63
2023/10/06 01:28:19;;;;;;;22.67;15.90;;;;;;;11.43;100.00;102361.50;5063973;28;20032;-63
2023/10/06 01:30:44;;;;;;;21.60;15.50;;;;;;;11.42;100.00;102357.88;5071911;28;20024;-63
2023/10/06 01:33:10;;;;;;;23.40;15.85;;;;;;;11.41;100.00;102347.91;5062881;28;20457;-63
2023/10/06 01:35:42;;;;;;;23.05;15.75;;;;;;;11.42;100.00;102357.06;5041226;28;20043;-63
2023/10/06 01:38:14;;;;;;;22.08;15.82;;;;;;;11.40;100.00;102351.78;5055817;28;20040;-63
2023/10/06 01:40:45;;;;;;;22.88;15.77;;;;;;;11.39;100.00;102350.97;5059080;28;20465;-63
2023/10/06 01:43:12;;;;;;;22.38;16.45;;;;;;;11.38;100.00;102352.06;5068804;28;20052;-63
2023/10/06 01:45:43;;;;;;;20.65;15.90;;;;;;;11.37;100.00;102360.66;5052928;28;20488;-64
2023/10/06 01:50:39;;;;;;;22.35;15.60;;;;;;;11.34;100.00;102353.72;5061004;28;20105;-63
2023/10/06 01:53:11;;;;;;;23.58;15.85;;;;;;;11.33;100.00;102349.31;5054915;28;20025;-63
2023/10/06 01:55:38;;;;;;;22.40;15.73;;;;;;;11.31;100.00;102342.34;5066237;28;20029;-63
2023/10/06 01:58:11;;;;;;;23.70;15.88;;;;;;;11.29;100.00;102331.56;5069704;28;20055;-63
2023/10/06 02:00:37;;;;;;;25.33;15.90;;;;;;;11.27;100.00;102335.72;5054433;28;20048;-63
2023/10/06 02:03:04;;;;;;;22.75;15.10;;;;;;;11.24;100.00;102340.69;5061258;28;20411;-63
2023/10/06 02:05:29;;;;;;;22.42;16.05;;;;;;;11.23;100.00;102336.25;5071283;28;20089;-63
2023/10/06 02:08:00;;;;;;;22.17;15.98;;;;;;;11.22;100.00;102334.59;5059529;28;20040;-63
2023/10/06 02:10:32;;;;;;;22.90;15.68;;;;;;;11.21;100.00;102343.19;5060026;28;20032;-63
2023/10/06 02:12:58;;;;;;;22.35;15.25;;;;;;;11.21;100.00;102351.47;5059066;28;20052;-63
2023/10/06 02:15:23;;;;;;;20.85;15.02;;;;;;;11.21;100.00;102348.72;5067913;28;20065;-63
2023/10/06 02:17:50;;;;;;;21.83;15.48;;;;;;;11.18;100.00;102358.41;5052908;28;20025;-63
2023/10/06 02:22:58;;;;;;;23.95;15.75;;;;;;;11.16;100.00;102348.69;5059623;28;20500;-63
2023/10/06 02:25:25;;;;;;;23.17;15.93;;;;;;;11.15;100.00;102347.03;5052438;28;20033;-63
2023/10/06 02:27:51;;;;;;;23.52;16.30;;;;;;;11.14;100.00;102351.75;5051501;28;20055;-63
2023/10/06 02:30:19;;;;;;;20.65;15.00;;;;;;;11.11;100.00;102352.28;5070058;28;20040;-63
2023/10/06 02:32:45;;;;;;;21.98;15.45;;;;;;;11.06;100.00;102344.78;5057447;28;20055;-63
2023/10/06 02:35:12;;;;;;;23.65;15.95;;;;;;;11.04;100.00;102352.56;5058270;28;20024;-63
2023/10/06 02:37:40;;;;;;;22.92;16.25;;;;;;;10.99;100.00;102348.94;5061001;28;20063;-63
2023/10/06 02:40:11;;;;;;;23.95;15.45;;;;;;;10.97;100.00;102351.97;5069579;28;20020;-63
2023/10/06 02:42:45;;;;;;;29.80;16.88;;;;;;;10.92;100.00;102344.47;5050973;28;20063;-63
2023/10/06 02:45:20;;;;;;;22.08;15.55;;;;;;;10.90;100.00;102345.84;5056309;28;20027;-63
2023/10/06 02:47:45;;;;;;;23.08;16.48;;;;;;;10.86;100.00;102344.75;5071322;28;20032;-63
2023/10/06 02:50:19;;;;;;;23.60;16.42;;;;;;;10.82;100.00;102338.88;5071001;28;20020;-63
2023/10/06 02:52:46;;;;;;;23.50;15.68;;;;;;;10.80;100.00;102338.34;5052063;28;20492;-63
2023/10/06 02:55:13;;;;;;;23.85;16.10;;;;;;;10.78;100.00;102332.25;5053109;28;20029;-63
2023/10/06 02:57:41;;;;;;;24.05;16.13;;;;;;;10.76;100.00;102328.91;5070339;28;20031;-63
2023/10/06 03:02:56;;;;;;;25.60;17.17;;;;;;;10.74;100.00;102323.66;5060047;28;20105;-63
2023/10/06 03:05:32;;;;;;;22.70;15.98;;;;;;;10.70;100.00;102325.28;5036265;28;20040;-63
2023/10/06 03:07:58;;;;;;;25.38;15.50;;;;;;;10.68;100.00;102324.72;5055775;28;20485;-63
2023/10/06 03:10:27;;;;;;;22.58;15.50;;;;;;;10.66;100.00;102329.72;5053928;28;20082;-63
2023/10/06 03:12:57;;;;;;;25.25;16.27;;;;;;;10.61;100.00;102333.31;5058078;28;20025;-63
2023/10/06 03:15:28;;;;;;;22.70;16.52;;;;;;;10.60;100.00;102330.78;5060819;28;20020;-63
2023/10/06 03:17:55;;;;;;;21.95;15.65;;;;;;;10.56;100.00;102329.66;5068439;28;20066;-63
2023/10/06 03:20:22;;;;;;;23.30;16.67;;;;;;;10.55;100.00;102323.28;5069992;28;20430;-63
2023/10/06 03:22:52;;;;;;;21.67;15.93;;;;;;;10.54;100.00;102320.81;5073067;28;20020;-63
2023/10/06 03:25:18;;;;;;;25.02;16.73;;;;;;;10.53;100.00;102321.91;5063718;28;20021;-63
2023/10/06 03:27:53;;;;;;;23.65;16.30;;;;;;;10.49;100.00;102321.63;5073910;28;20085;-63
2023/10/06 03:30:26;;;;;;;22.02;16.27;;;;;;;10.47;100.00;102325.75;5059759;28;20029;-63
2023/10/06 03:32:52;;;;;;;;;;;;;;;10.48;100.00;102321.88;5068576;28;20432;-63
2023/10/06 03:35:35;;;;;;;23.23;16.70;;;;;;;10.45;100.00;102320.47;5063604;28;19912;-63
2023/10/06 03:38:27;;;;;;;22.83;15.82;;;;;;;10.41;100.00;102314.66;5066431;28;20035;-63
2023/10/06 03:43:34;;;;;;;23.25;16.52;;;;;;;10.37;100.00;102313.53;5065358;28;20056;-63
2023/10/06 03:46:01;;;;;;;24.75;16.55;;;;;;;10.36;100.00;102316.53;5072117;28;20032;-63
2023/10/06 03:48:29;;;;;;;22.52;16.70;;;;;;;10.38;100.00;102301.38;5057953;28;20033;-63
2023/10/06 03:50:55;;;;;;;25.90;16.50;;;;;;;10.35;100.00;102301.88;5067216;28;20229;-63
2023/10/06 03:53:24;;;;;;;23.65;16.98;;;;;;;10.34;100.00;102300.19;5068361;28;20035;-63
2023/10/06 03:55:49;;;;;;;22.55;15.98;;;;;;;10.34;100.00;102297.44;5060858;28;20021;-63
2023/10/06 03:58:16;;;;;;;23.05;16.65;;;;;;;10.34;100.00;102296.63;5057085;28;20456;-62
2023/10/06 04:00:48;;;;;;;25.35;16.48;;;;;;;10.33;100.00;102297.72;5058685;28;20115;-63
2023/10/06 04:03:17;;;;;;;23.25;16.17;;;;;;;10.31;100.00;102303.50;5060009;28;20153;-63
2023/10/06 04:05:44;;;;;;;22.35;15.68;;;;;;;10.28;100.00;102287.47;5068146;28;20566;-62
2023/10/06 04:08:16;;;;;;;23.52;16.30;;;;;;;10.26;100.00;102290.47;5073881;28;20460;-63
2023/10/06 04:10:43;;;;;;;23.45;15.95;;;;;;;10.25;100.00;102297.09;5064876;28;20033;-63
2023/10/06 04:13:10;;;;;;;24.13;16.55;;;;;;;10.23;100.00;102291.03;5053704;28;20032;-63
2023/10/06 04:15:39;;;;;;;24.48;16.23;;;;;;;10.21;100.00;102287.69;5058754;28;20115;-63
2023/10/06 04:18:10;;;;;;;25.40;16.48;;;;;;;10.18;100.00;102288.22;5062452;28;20033;-63
2023/10/06 04:20:41;;;;;;;23.80;15.88;;;;;;;10.16;100.00;102287.66;5057265;28;20063;-63
2023/10/06 04:23:07;;;;;;;23.00;16.23;;;;;;;10.14;100.00;102299.00;5057032;28;20047;-63
2023/10/06 04:25:39;;;;;;;23.52;16.20;;;;;;;10.13;100.00;102302.84;5062418;28;20031;-63
2023/10/06 04:28:14;;;;;;;22.63;16.67;;;;;;;10.13;100.00;102310.31;5070117;28;20456;-63
2023/10/06 04:30:43;;;;;;;23.45;16.20;;;;;;;10.12;100.00;102301.19;5073635;28;20384;-63
2023/10/06 04:33:13;;;;;;;22.73;16.10;;;;;;;10.13;100.00;102302.03;5072248;28;20036;-63
2023/10/06 04:35:40;;;;;;;23.02;15.55;;;;;;;10.11;100.00;102301.47;5060329;28;20108;-63
2023/10/06 04:38:09;;;;;;;25.25;15.98;;;;;;;10.10;100.00;102300.63;5055522;28;20506;-63
2023/10/06 04:40:35;;;;;;;23.98;16.27;;;;;;;10.10;100.00;102295.09;5061746;28;20098;-64
2023/10/06 04:43:01;;;;;;;24.13;15.75;;;;;;;10.10;100.00;102295.09;5068822;28;20056;-63
2023/10/06 04:45:31;;;;;;;23.58;16.65;;;;;;;10.07;100.00;102298.41;5066753;28;20024;-63
2023/10/06 04:47:56;;;;;;;22.77;16.13;;;;;;;10.06;100.00;102293.16;5071460;28;20056;-64
2023/10/06 04:50:22;;;;;;;24.05;16.40;;;;;;;10.03;100.00;102296.44;5056117;28;20064;-63
2023/10/06 04:52:48;;;;;;;23.83;15.98;;;;;;;10.03;100.00;102288.97;5068615;28;20406;-64
2023/10/06 04:55:14;;;;;;;23.23;15.98;;;;;;;10.04;100.00;102282.34;5072597;28;20039;-63
2023/10/06 04:57:43;;;;;;;22.73;16.10;;;;;;;10.07;100.00;102290.09;5061928;28;20541;-63
2023/10/06 05:00:19;;;;;;;22.98;15.77;;;;;;;10.08;100.00;102286.25;5064823;28;20471;-63
2023/10/06 05:02:50;;;;;;;21.30;15.15;;;;;;;10.11;100.00;102285.69;5073100;28;20028;-63
2023/10/06 05:05:20;;;;;;;23.27;15.95;;;;;;;10.14;100.00;102285.16;5069326;28;20416;-64
2023/10/06 05:07:50;;;;;;;23.80;15.57;;;;;;;10.17;100.00;102280.19;5052816;28;20079;-63
2023/10/06 05:10:18;;;;;;;21.75;15.57;;;;;;;10.19;100.00;102278.81;5056665;28;20028;-62
2023/10/06 05:12:44;;;;;;;21.65;15.13;;;;;;;10.22;100.00;102280.22;5055121;28;20047;-62
2023/10/06 05:15:23;;;;;;;21.52;15.45;;;;;;;10.25;100.00;102274.16;5053625;28;20108;-62
2023/10/06 05:17:54;;;;;;;22.55;15.85;;;;;;;10.27;100.00;102266.44;5066351;28;20040;-62
2023/10/06 05:20:20;;;;;;;23.73;15.70;;;;;;;10.31;100.00;102284.13;5072326;28;20108;-62
2023/10/06 05:22:48;;;;;;;22.13;15.45;;;;;;;10.38;100.00;102281.16;5062927;28;20020;-62
2023/10/06 05:25:14;;;;;;;21.83;15.93;;;;;;;10.41;100.00;102275.09;5072315;28;20051;-63
2023/10/06 05:27:42;;;;;;;21.45;14.88;;;;;;;10.43;100.00;102273.72;5064663;28;20124;-63
2023/10/06 05:30:08;;;;;;;23.55;15.27;;;;;;;10.44;100.00;102274.53;5052042;28;20024;-62
2023/10/06 05:32:33;;;;;;;20.83;14.93;;;;;;;10.47;100.00;102270.41;5069717;28;20082;-62
2023/10/06 05:34:59;;;;;;;21.83;14.48;;;;;;;10.48;100.00;102272.09;5066696;28;20131;-63
2023/10/06 05:37:24;;;;;;;21.48;14.50;;;;;;;10.47;100.00;102273.19;5061074;28;20033;-63
2023/10/06 05:39:49;;;;;;;22.52;15.40;;;;;;;10.47;100.00;102279.53;5057731;28;20388;-62
2023/10/06 05:42:16;;;;;;;22.75;14.93;;;;;;;10.45;100.00;102278.97;5070636;28;20075;-63
2023/10/06 05:44:42;;;;;;;21.70;14.80;;;;;;;10.45;100.00;102279.81;5065775;28;20052;-63
2023/10/06 05:47:08;;;;;;;23.88;15.35;;;;;;;10.44;100.00;102274.53;5062619;28;20025;-63
2023/10/06 05:49:35;;;;;;;22.00;15.55;;;;;;;10.43;100.00;102282.00;5066839;28;20452;-62
2023/10/06 05:52:03;;;;;;;21.02;14.98;;;;;;;10.44;100.00;102280.91;5070706;28;20107;-63
2023/10/06 05:54:29;;;;;;;21.65;14.50;;;;;;;10.44;100.00;102274.53;5066061;28;20492;-64
2023/10/06 05:56:55;;;;;;;21.67;13.60;;;;;;;10.47;100.00;102285.06;5044224;28;20780;-63
2023/10/06 05:59:21;;;;;;;21.92;13.88;;;;;;;10.53;100.00;102280.41;5054337;28;20027;-63
2023/10/06 06:01:55;;;;;;;22.52;14.27;;;;;;;10.53;100.00;102272.91;5063038;28;20178;-63
2023/10/06 06:04:27;;;;;;;22.83;13.93;;;;;;;10.56;100.00;102280.69;5071594;28;20104;-63
2023/10/06 06:06:56;;;;;;;21.08;13.68;;;;;;;10.65;100.00;102271.84;5067852;28;20032;-65
2023/10/06 06:09:22;;;;;;;22.10;13.25;;;;;;;10.70;100.00;102274.66;5055542;28;20029;-63
2023/10/06 06:11:47;;;;;;;20.83;13.68;;;;;;;10.75;100.00;102271.88;5055764;28;20087;-63
2023/10/06 06:14:13;;;;;;;21.02;13.55;;;;;;;10.87;100.00;102272.47;5055390;28;20025;-64
2023/10/06 06:16:44;;;;;;;23.90;13.65;;;;;;;10.93;100.00;102273.31;5063126;28;20131;-63
2023/10/06 06:19:11;;;;;;;22.65;13.00;;;;;;;11.01;100.00;102267.25;5052385;28;20468;-63
2023/10/06 06:21:38;;;;;;;23.42;13.63;;;;;;;11.08;100.00;102267.00;5043110;28;20028;-63
2023/10/06 06:24:06;;;;;;;20.23;12.85;;;;;;;11.13;100.00;102272.53;5061033;28;20040;-63
2023/10/06 06:26:31;;;;;;;23.88;12.95;;;;;;;11.17;100.00;102275.56;5061299;28;20031;-62
2023/10/06 06:29:02;;;;;;;23.23;13.05;;;;;;;11.20;100.00;102273.06;5068106;28;20024;-63
2023/10/06 06:31:28;;;;;;;21.30;12.80;;;;;;;11.24;100.00;102271.44;5070482;28;20025;-63
2023/10/06 06:33:56;;;;;;;20.73;12.95;;;;;;;11.28;100.00;102284.75;5055191;28;20182;-63
2023/10/06 06:36:21;;;;;;;20.83;12.95;;;;;;;11.29;100.00;102278.91;5049424;28;20030;-63
2023/10/06 06:38:48;;;;;;;22.33;13.23;;;;;;;11.33;100.00;102279.19;5069985;28;20376;-63
2023/10/06 06:41:13;;;;;;;21.25;13.52;;;;;;;11.37;100.00;102288.63;5065524;28;20044;-63
2023/10/06 06:43:43;;;;;;;20.90;13.38;;;;;;;11.39;100.00;102278.06;5069178;28;20432;-63
2023/10/06 06:46:09;;;;;;;22.70;12.68;;;;;;;11.38;100.00;102282.78;5065875;28;20032;-63
2023/10/06 06:48:35;;;;;;;21.90;13.52;;;;;;;11.41;100.00;102275.06;5053928;28;20024;-63
2023/10/06 06:51:01;;;;;;;23.33;12.98;;;;;;;11.44;100.00;102278.09;5065579;28;20054;-63
2023/10/06 06:53:27;;;;;;;20.08;12.75;;;;;;;11.46;100.00;102283.34;5070654;28;20108;-63
2023/10/06 06:55:53;;;;;;;21.55;13.07;;;;;;;11.47;100.00;102280.31;5062418;28;20060;-66
2023/10/06 06:58:18;;;;;;;20.25;12.60;;;;;;;11.45;100.00;102279.75;5070728;28;20079;-65
2023/10/06 07:00:47;;;;;;;20.50;12.77;;;;;;;11.52;100.00;102282.25;5059707;28;20579;-66
2023/10/06 07:03:12;;;;;;;21.48;13.00;;;;;;;11.47;100.00;102285.00;5054185;28;20396;-65
2023/10/06 07:05:39;;;;;;;19.95;12.70;;;;;;;11.46;100.00;102288.88;5067289;28;20033;-65
2023/10/06 07:08:05;;;;;;;22.50;13.00;;;;;;;11.47;100.00;102285.88;5064316;28;20029;-64
2023/10/06 07:10:30;;;;;;;20.23;12.80;;;;;;;11.49;100.00;102280.84;5062886;28;20027;-65
2023/10/06 07:12:58;;;;;;;21.75;13.10;;;;;;;11.51;100.00;102286.13;5069333;28;20115;-64
2023/10/06 07:15:27;;;;;;;23.08;13.35;;;;;;;11.53;100.00;102286.66;5063711;28;20105;-64
2023/10/06 07:17:54;;;;;;;21.08;12.93;;;;;;;11.58;100.00;102272.81;5060381;28;20048;-64
2023/10/06 07:20:27;;;;;;;22.45;13.35;;;;;;;11.58;100.00;102283.91;5057860;28;20043;-64
2023/10/06 07:22:53;;;;;;;21.05;13.10;;;;;;;11.61;100.00;102280.59;5050095;28;20465;-64
2023/10/06 07:25:20;;;;;;;21.52;13.13;;;;;;;11.65;100.00;102283.63;5031655;28;20025;-66
2023/10/06 07:27:47;;;;;;;21.13;12.98;;;;;;;11.67;100.00;102279.47;5049474;28;20029;-65
2023/10/06 07:30:17;;;;;;;20.23;12.90;;;;;;;11.71;100.00;102282.50;5049524;28;20034;-65
2023/10/06 07:32:44;;;;;;;20.88;12.75;;;;;;;11.78;100.00;102285.00;5049176;28;20063;-66
2023/10/06 07:35:14;;;;;;;23.45;13.32;;;;;;;11.80;100.00;102291.09;5049698;28;20091;-65
2023/10/06 07:37:43;;;;;;;22.10;13.45;;;;;;;11.87;100.00;102291.66;5049097;28;20131;-65
2023/10/06 07:40:14;;;;;;;20.20;13.60;;;;;;;11.90;100.00;102282.78;5049197;28;20029;-65
2023/10/06 07:42:44;;;;;;;22.23;13.32;;;;;;;12.03;100.00;102289.72;5049005;28;20048;-65
2023/10/06 07:45:10;;;;;;;24.77;14.32;;;;;;;12.15;100.00;102293.00;5052088;28;20029;-65
2023/10/06 07:47:38;;;;;;;23.55;12.93;;;;;;;12.25;100.00;102296.84;5054594;28;20040;-66
2023/10/06 07:50:09;;;;;;;23.00;12.63;;;;;;;12.33;100.00;102308.22;5049560;28;20052;-65
2023/10/06 07:52:35;;;;;;;21.90;13.40;;;;;;;12.40;100.00;102313.47;5031969;28;20112;-64
2023/10/06 07:55:01;;;;;;;22.65;13.23;;;;;;;12.49;100.00;102313.69;5049092;28;20524;-65
2023/10/06 07:57:31;;;;;;;19.02;12.90;;;;;;;12.56;100.00;102322.59;5049191;28;20104;-64
2023/10/06 07:59:58;;;;;;;22.20;13.15;;;;;;;12.60;100.00;102320.88;5052488;28;20033;-64
2023/10/06 08:02:23;;;;;;;23.67;13.20;;;;;;;12.64;100.00;102315.59;5060401;28;20074;-64
2023/10/06 08:04:48;;;;;;;22.33;13.25;;;;;;;12.73;100.00;102321.41;5065230;28;20383;-64
2023/10/06 08:07:14;;;;;;;21.77;13.00;;;;;;;12.83;100.00;102313.00;5072823;28;20078;-64
2023/10/06 08:09:39;;;;;;;21.92;13.02;;;;;;;12.87;100.00;102314.09;5054763;28;20052;-64
2023/10/06 08:12:08;;;;;;;23.27;13.63;;;;;;;12.99;100.00;102315.69;5072609;28;20020;-65
2023/10/06 08:14:33;;;;;;;21.67;13.45;;;;;;;13.06;100.00;102308.72;5073862;28;20032;-64
2023/10/06 08:16:59;;;;;;;21.65;12.88;;;;;;;13.14;100.00;102296.16;5055156;28;20099;-64
2023/10/06 08:19:24;;;;;;;22.42;13.68;;;;;;;13.21;100.00;102301.38;5072262;28;20518;-64
2023/10/06 08:21:50;;;;;;;22.48;13.60;;;;;;;13.34;100.00;102308.25;5071778;28;20123;-65
2023/10/06 08:24:15;;;;;;;23.17;13.63;;;;;;;13.45;100.00;102304.28;5071501;28;20085;-64
2023/10/06 08:26:41;;;;;;;22.48;13.18;;;;;;;13.63;100.00;102304.69;5071244;28;20037;-65
2023/10/06 08:29:06;;;;;;;21.90;13.65;;;;;;;13.77;100.00;102311.28;5071338;28;20089;-64
2023/10/06 08:31:31;;;;;;;21.27;12.95;;;;;;;13.93;100.00;102299.97;5071024;28;20561;-64
2023/10/06 08:33:58;;;;;;;22.80;13.50;;;;;;;14.09;100.00;102309.00;5071245;28;20384;-64
2023/10/06 08:36:23;;;;;;;21.50;13.20;;;;;;;14.28;100.00;102306.28;5072034;28;20051;-64
2023/10/06 08:38:51;;;;;;;22.05;12.93;;;;;;;14.47;100.00;102309.97;5071945;28;20656;-64
2023/10/06 08:41:33;;;;;;;21.52;13.23;;;;;;;14.65;100.00;102307.50;5071832;28;20057;-64
2023/10/06 08:44:02;;;;;;;23.05;13.13;;;;;;;14.84;100.00;102307.59;5072223;28;20032;-64
2023/10/06 08:46:30;;;;;;;20.88;13.23;;;;;;;14.96;100.00;102305.19;5054053;28;20016;-64
2023/10/06 08:48:56;;;;;;;22.38;13.73;;;;;;;15.03;100.00;102302.00;5072442;28;20075;-64
2023/10/06 08:51:25;;;;;;;23.00;13.45;;;;;;;15.02;100.00;102296.75;5071996;28;20050;-64
2023/10/06 08:53:55;;;;;;;20.85;13.50;;;;;;;15.09;100.00;102303.59;5071849;28;20025;-64
2023/10/06 08:56:21;;;;;;;21.08;13.90;;;;;;;15.03;100.00;102302.00;5071777;28;20505;-64
2023/10/06 08:58:46;;;;;;;21.45;13.35;;;;;;;15.06;100.00;102312.56;5060424;28;20037;-65
2023/10/06 09:01:12;;;;;;;20.83;13.57;;;;;;;15.11;100.00;102322.81;5051057;28;20021;-64
2023/10/06 09:03:38;;;;;;;20.52;13.18;;;;;;;15.15;100.00;102326.66;5051882;28;20150;-65
2023/10/06 09:06:06;;;;;;;21.45;13.05;;;;;;;15.19;100.00;102322.13;5051587;28;20107;-65
2023/10/06 09:08:42;;;;;;;22.35;13.00;;;;;;;15.27;100.00;102331.78;5051612;28;20111;-64
2023/10/06 09:11:07;;;;;;;21.08;12.60;;;;;;;15.28;100.00;102328.69;5051401;28;20037;-64
2023/10/06 09:13:33;;;;;;;22.85;13.10;;;;;;;15.39;100.00;102328.53;5059268;28;20032;-65
2023/10/06 09:16:03;;;;;;;21.48;12.90;;;;;;;15.51;100.00;102322.47;5063065;28;20111;-65
2023/10/06 09:18:29;;;;;;;20.65;12.50;;;;;;;15.72;100.00;102311.81;5060865;28;20075;-64
2023/10/06 09:21:09;;;;;;;22.73;12.77;;;;;;;15.82;100.00;102308.00;5055732;28;20028;-64
2023/10/06 09:23:40;;;;;;;20.67;12.98;;;;;;;16.01;100.00;102308.81;5051423;28;20079;-64
2023/10/06 09:26:11;;;;;;;22.05;12.75;;;;;;;16.05;100.00;102295.91;5051316;28;20028;-64
2023/10/06 09:28:47;;;;;;;22.13;13.02;;;;;;;16.03;100.00;102297.31;5051617;28;20033;-64
2023/10/06 09:31:13;;;;;;;21.20;13.00;;;;;;;16.04;100.00;102307.34;5051311;28;20338;-65
2023/10/06 09:33:38;;;;;;;20.38;12.80;;;;;;;16.10;100.00;102302.50;5051510;28;20036;-65
2023/10/06 09:36:07;;;;;;;20.27;13.23;;;;;;;16.19;100.00;102297.84;5050003;28;20087;-64
2023/10/06 09:38:33;;;;;;;20.40;13.57;;;;;;;16.24;100.00;102292.19;5062361;28;20044;-64
2023/10/06 09:40:59;;;;;;;22.42;12.95;;;;;;;16.26;100.00;102291.88;5067920;28;20024;-65
2023/10/06 09:43:25;;;;;;;21.55;13.30;;;;;;;16.35;100.00;102287.22;5051633;28;20477;-65
2023/10/06 09:45:52;;;;;;;21.85;13.40;;;;;;;16.41;100.00;102282.34;5050987;28;20032;-65
2023/10/06 09:48:25;;;;;;;20.08;13.35;;;;;;;16.44;100.00;102284.50;5051473;28;20032;-65
2023/10/06 09:50:54;;;;;;;20.90;13.05;;;;;;;16.37;100.00;102284.94;5055449;28;20032;-66
2023/10/06 09:53:20;;;;;;;22.27;13.70;;;;;;;16.36;100.00;102280.50;5071097;28;20112;-67
2023/10/06 09:55:49;;;;;;;20.70;12.73;;;;;;;16.32;100.00;102280.28;5070959;28;20116;-67
2023/10/06 09:58:17;;;;;;;19.30;13.27;;;;;;;16.35;100.00;102278.84;5051601;28;20032;-67
2023/10/06 10:00:43;;;;;;;20.80;12.70;;;;;;;16.42;100.00;102284.00;5050644;28;20036;-67
2023/10/06 10:03:12;;;;;;;22.33;13.40;;;;;;;16.45;100.00;102291.75;5050294;28;20043;-67
2023/10/06 10:05:39;;;;;;;19.75;12.63;;;;;;;16.48;100.00;102288.34;5051003;28;20035;-68
2023/10/06 10:08:06;;;;;;;20.80;13.20;;;;;;;16.52;100.00;102278.22;5050859;28;20083;-68
2023/10/06 10:10:34;;;;;;;22.10;12.88;;;;;;;16.57;100.00;102266.09;5050399;28;20028;-66
2023/10/06 10:13:27;;;;;;;21.23;12.57;;;;;;;16.68;99.79;102271.16;5050739;28;20102;-67
2023/10/06 10:15:55;;;;;;;20.15;12.00;;;;;;;16.78;99.49;102264.50;5050476;28;20504;-66
2023/10/06 10:18:25;;;;;;;21.40;12.30;;;;;;;16.93;98.33;102266.13;5050390;28;20033;-67
2023/10/06 10:20:52;;;;;;;19.38;12.20;;;;;;;17.05;97.23;102264.75;5050185;28;20457;-66
2023/10/06 10:23:18;;;;;;;20.98;12.32;;;;;;;17.15;96.26;102265.31;5049852;28;20052;-66
2023/10/06 10:25:44;;;;;;;18.27;11.82;;;;;;;17.21;96.57;102274.44;5050130;28;20443;-66
2023/10/06 10:28:13;;;;;;;19.90;12.23;;;;;;;17.28;95.58;102274.84;5051296;28;20021;-66
2023/10/06 10:30:54;;;;;;;18.95;11.90;;;;;;;17.27;96.89;102264.78;5052015;28;20029;-66
2023/10/06 10:33:24;;;;;;;21.17;12.13;;;;;;;17.25;95.83;102258.69;5050081;28;20616;-67
2023/10/06 10:36:20;;;;;;;19.48;11.63;;;;;;;17.33;95.89;102262.69;5049939;28;20769;-67
2023/10/06 10:38:57;;;;;;;20.52;12.23;;;;;;;17.27;94.39;102269.53;5050235;28;20072;-66
2023/10/06 10:41:26;;;;;;;22.10;12.00;;;;;;;17.23;94.64;102274.94;5050049;28;20546;-66
2023/10/06 10:43:51;;;;;;;19.90;12.25;;;;;;;17.25;93.81;102264.28;5048558;28;20031;-67
2023/10/06 10:46:41;;;;;;;21.02;12.02;;;;;;;17.39;94.47;102257.78;5031936;28;20096;-68
2023/10/06 10:49:10;;;;;;;20.55;11.85;;;;;;;17.56;94.06;102254.25;5050262;28;20112;-67
2023/10/06 10:52:00;;;;;;;20.83;11.90;;;;;;;17.74;94.90;102253.22;5049816;28;20187;-67
2023/10/06 10:54:32;;;;;;;20.60;11.68;;;;;;;17.83;93.04;102258.03;5050295;28;20038;-67
2023/10/06 10:57:05;;;;;;;19.70;12.07;;;;;;;17.82;91.89;102251.63;5049842;28;20049;-67
2023/10/06 11:02:42;;;;;;;20.35;12.10;;;;;;;17.99;92.17;102262.13;5049094;28;20087;-66
2023/10/06 11:05:09;;;;;;;20.55;11.80;;;;;;;18.02;91.18;102260.63;5049544;28;20392;-67
2023/10/06 11:07:35;;;;;;;21.75;12.18;;;;;;;18.08;91.34;102268.56;5049781;28;20029;-67
2023/10/06 11:10:04;;;;;;;19.58;12.00;;;;;;;18.07;89.98;102274.47;5050030;28;20033;-68
2023/10/06 11:12:30;;;;;;;19.25;12.13;;;;;;;18.05;89.94;102262.78;5063962;28;20128;-68
2023/10/06 11:15:13;;;;;;;20.40;11.90;;;;;;;17.95;90.09;102275.06;5069839;28;20440;-67
2023/10/06 11:17:41;;;;;;;19.30;11.60;;;;;;;17.89;90.92;102273.56;5051479;28;20028;-66
2023/10/06 11:20:21;;;;;;;20.65;11.90;;;;;;;17.94;91.68;102267.81;5069642;28;20116;-68
2023/10/06 11:22:54;;;;;;;20.48;12.38;;;;;;;17.98;92.22;102260.47;5069515;28;20032;-67
2023/10/06 11:25:26;;;;;;;22.45;12.40;;;;;;;17.99;91.23;102247.28;5069569;28;20040;-67